Time;durP1;ratioP1;P1;durP2;ratioP2;P2;SDS_P1;SDS_P2;PMS_P1;PMS_P2;Temp;Humidity;BMP_temperature;BMP_pressure;BME280_temperature;BME280_humidity;BME280_pressure;Samples;Min_cycle;Max_cycle;Signal;HPM_P1;HPM_P2
2023/11/23 00:02:42;;;;;;;2.03;0.43;;;;;;;10.43;100.00;101842.41;4874802;29;20123;-95
2023/11/23 00:05:33;;;;;;;2.10;0.40;;;;;;;10.40;100.00;101855.03;4877464;29;20037;-96
2023/11/23 00:08:34;;;;;;;1.17;0.30;;;;;;;10.43;100.00;101846.88;4888972;29;20132;-96
2023/11/23 00:11:29;;;;;;;3.42;0.40;;;;;;;10.47;100.00;101856.31;4849791;29;20496;-94
2023/11/23 00:15:00;;;;;;;3.78;0.47;;;;;;;10.50;100.00;101866.66;4871273;29;20497;-96
2023/11/23 00:18:19;;;;;;;3.83;0.40;;;;;;;10.47;100.00;101866.88;4844823;29;20068;-96
2023/11/23 00:20:58;;;;;;;2.45;0.30;;;;;;;10.45;100.00;101863.44;4898491;29;20093;-96
2023/11/23 00:23:41;;;;;;;1.85;0.15;;;;;;;10.47;100.00;101861.59;4873221;29;20048;-96
2023/11/23 00:26:26;;;;;;;0.80;0.30;;;;;;;10.47;100.00;101858.09;4881998;29;20024;-96
2023/11/23 00:29:01;;;;;;;4.10;0.40;;;;;;;10.37;100.00;101855.22;4899584;29;20629;-96
2023/11/23 00:48:49;;;;;;;0.40;0.20;;;;;;;10.34;100.00;101852.78;4902916;29;20040;-96
2023/11/23 00:51:39;;;;;;;0.50;0.20;;;;;;;10.29;100.00;101861.03;4880600;29;20764;-96
2023/11/23 03:39:02;;;;;;;1.30;0.20;;;;;;;10.19;100.00;101773.66;5414084;23;20052;-96
2023/11/23 03:51:48;;;;;;;3.15;0.20;;;;;;;10.30;100.00;101762.31;4866777;29;20055;-96
2023/11/23 03:55:00;;;;;;;;;;;;;;;;;;;;;
2023/11/23 06:14:09;;;;;;;6.85;0.82;;;;;;;10.12;100.00;101706.34;4884626;29;20069;-96
2023/11/23 06:17:19;;;;;;;3.78;1.10;;;;;;;10.13;100.00;101700.94;4880598;29;20051;-96
2023/11/23 06:20:21;;;;;;;4.78;0.60;;;;;;;10.07;100.00;101708.47;4886643;29;20036;-96
2023/11/23 06:23:39;;;;;;;6.32;0.88;;;;;;;10.14;100.00;101715.00;4859447;29;20045;-96
2023/11/23 06:26:20;;;;;;;6.63;1.25;;;;;;;10.09;100.00;101714.50;4880321;29;20041;-96
2023/11/23 06:28:59;;;;;;;5.57;0.82;;;;;;;10.13;100.00;101708.88;4889010;29;20037;-96
2023/11/23 06:31:47;;;;;;;5.43;1.08;;;;;;;10.13;100.00;101716.81;4866059;29;20044;-96
2023/11/23 06:34:58;;;;;;;4.13;0.70;;;;;;;10.08;100.00;101708.34;4852973;29;20033;-96
2023/11/23 06:38:26;;;;;;;;;;;;;;;;;;;;;
2023/11/23 06:41:28;;;;;;;4.90;0.55;;;;;;;10.10;100.00;101710.88;4862196;29;20040;-96
2023/11/23 06:45:03;;;;;;;3.25;0.93;;;;;;;10.14;100.00;101718.50;4882197;29;20153;-96
2023/11/23 06:48:00;;;;;;;2.35;0.60;;;;;;;10.15;100.00;101714.03;4856803;29;20101;-96
2023/11/23 06:54:58;;;;;;;;;;;;;;;;;;;;;
2023/11/23 06:58:14;;;;;;;16.83;9.98;;;;;;;10.07;100.00;101730.44;4850522;29;20041;-96
2023/11/23 07:01:24;;;;;;;6.43;1.35;;;;;;;10.16;100.00;101715.75;4866569;29;20147;-96
2023/11/23 07:04:30;;;;;;;4.72;0.70;;;;;;;10.08;100.00;101728.66;4882607;29;20062;-96
2023/11/23 07:07:06;;;;;;;8.88;2.70;;;;;;;10.10;100.00;101732.88;4914137;29;20113;-96
2023/11/23 07:09:42;;;;;;;6.25;2.20;;;;;;;10.11;100.00;101746.94;4894969;29;20061;-96
2023/11/23 07:57:34;;;;;;;7.78;0.88;;;;;;;10.09;100.00;101746.19;5948216;23;20098;-96
2023/11/23 08:00:52;;;;;;;;;;;;;;;;;;;;;
2023/11/23 08:03:41;;;;;;;6.00;0.68;;;;;;;10.18;100.00;101745.53;4882264;29;20044;-96
2023/11/23 08:12:26;;;;;;;6.07;0.98;;;;;;;10.20;100.00;101753.34;5529058;23;20123;-96
2023/11/23 08:18:38;;;;;;;8.95;1.02;;;;;;;10.18;100.00;101754.31;4906670;23;20100;-96
2023/11/23 08:33:15;;;;;;;7.65;0.90;;;;;;;10.27;100.00;101768.66;5666143;23;20093;-96
2023/11/23 08:45:37;;;;;;;3.92;0.70;;;;;;;10.39;100.00;101761.66;4911285;29;20071;-96
2023/11/23 08:48:23;;;;;;;11.75;0.98;;;;;;;10.38;100.00;101762.59;4871658;29;20058;-96
2023/11/23 08:51:07;;;;;;;7.18;1.38;;;;;;;10.37;100.00;101770.63;4883814;29;20112;-96
2023/11/23 09:12:18;;;;;;;10.35;1.35;;;;;;;10.45;100.00;101744.50;4874015;29;20101;-96
2023/11/23 09:14:52;;;;;;;13.70;1.80;;;;;;;10.40;100.00;101742.19;4878293;29;20041;-96
2023/11/23 09:17:19;;;;;;;6.00;1.08;;;;;;;10.41;100.00;101729.84;4894418;23;20052;-96
2023/11/23 09:22:40;;;;;;;10.68;1.30;;;;;;;10.46;100.00;101725.09;5061792;23;20040;-96
2023/11/23 09:28:09;;;;;;;10.65;1.15;;;;;;;10.57;100.00;101731.38;4897973;29;20049;-96
2023/11/23 09:30:38;;;;;;;11.70;1.42;;;;;;;10.54;100.00;101725.34;4876366;29;20054;-96
2023/11/23 09:33:15;;;;;;;11.27;0.95;;;;;;;10.58;100.00;101727.78;4845603;29;20040;-96
2023/11/23 09:35:47;;;;;;;8.50;1.35;;;;;;;10.64;100.00;101719.38;5499987;23;20019;-94
2023/11/23 09:38:30;;;;;;;10.05;0.90;;;;;;;10.69;100.00;101735.75;5174274;23;20052;31
2023/11/23 09:56:29;;;;;;;7.63;1.00;;;;;;;10.86;100.00;101707.25;2031210;23;20304;-96
2023/11/23 10:25:40;;;;;;;3.03;0.70;;;;;;;11.19;100.00;101731.25;3839203;23;20039;-97
2023/11/23 10:28:08;;;;;;;8.35;1.02;;;;;;;11.28;100.00;101738.50;4855047;29;20057;-94
2023/11/23 10:30:39;;;;;;;7.93;0.90;;;;;;;11.32;100.00;101742.59;4884721;29;20030;-94
2023/11/23 10:33:05;;;;;;;3.75;1.00;;;;;;;11.30;100.00;101731.28;4858375;29;20042;-96
2023/11/23 10:38:25;;;;;;;7.20;0.95;;;;;;;11.36;100.00;101724.66;5300977;23;20060;-96
2023/11/23 10:41:31;;;;;;;2.80;0.60;;;;;;;11.34;100.00;101719.50;4901651;29;20092;-96
2023/11/23 10:43:59;;;;;;;5.93;0.90;;;;;;;11.31;100.00;101729.50;5105475;23;20060;-96
2023/11/23 10:46:27;;;;;;;6.25;1.30;;;;;;;11.34;100.00;101737.19;4900692;29;20044;-96
2023/11/23 10:52:00;;;;;;;;;;;;;;;;;;;;;
2023/11/23 10:55:07;;;;;;;9.27;1.48;;;;;;;11.45;100.00;101739.84;4886561;29;20063;-96
2023/11/23 10:57:55;;;;;;;8.32;1.50;;;;;;;11.46;100.00;101717.72;4877305;29;20052;-95
2023/11/23 11:00:47;;;;;;;6.07;1.10;;;;;;;11.37;100.00;101708.66;4866995;29;20041;-96
2023/11/23 11:03:22;;;;;;;7.68;1.42;;;;;;;11.47;100.00;101714.09;4877266;29;20040;-96
2023/11/23 11:06:16;;;;;;;12.15;1.40;;;;;;;11.47;100.00;101727.34;4902191;29;20112;-96
2023/11/23 11:09:23;;;;;;;6.38;1.13;;;;;;;11.60;100.00;101723.72;4904224;29;20088;-96
2023/11/23 11:12:17;;;;;;;6.75;1.15;;;;;;;11.62;100.00;101706.78;4901895;29;20105;-96
2023/11/23 11:15:22;;;;;;;8.35;1.55;;;;;;;11.64;100.00;101704.00;4866973;29;20033;-96
2023/11/23 11:17:51;;;;;;;11.68;1.00;;;;;;;11.64;100.00;101722.56;4875492;29;20055;-96
2023/11/23 11:24:27;;;;;;;10.18;1.50;;;;;;;11.56;100.00;101699.31;4836008;29;20045;-96
2023/11/23 11:27:01;;;;;;;12.85;2.08;;;;;;;11.60;100.00;101697.25;4885904;29;20040;-95
2023/11/23 11:29:48;;;;;;;16.38;2.05;;;;;;;11.63;100.00;101700.50;4886487;29;20123;-95
2023/11/23 11:32:44;;;;;;;10.95;2.03;;;;;;;11.66;100.00;101700.28;4857145;29;20112;-96
2023/11/23 11:35:20;;;;;;;14.68;2.13;;;;;;;11.66;100.00;101687.03;4873727;29;20041;-96
2023/11/23 11:38:22;;;;;;;14.45;1.55;;;;;;;11.69;100.00;101688.56;4876217;29;20041;-96
2023/11/23 11:40:49;;;;;;;10.75;1.95;;;;;;;11.69;100.00;101683.28;4890516;29;20139;-96
2023/11/23 11:43:29;;;;;;;13.85;1.50;;;;;;;11.77;100.00;101683.53;4867167;29;20040;-96
2023/11/23 11:46:29;;;;;;;10.02;1.83;;;;;;;11.81;100.00;101664.75;4882495;29;20076;-96
2023/11/23 11:49:30;;;;;;;11.88;1.40;;;;;;;11.82;100.00;101667.25;4853295;29;20048;-96
2023/11/23 11:51:58;;;;;;;16.20;2.15;;;;;;;11.79;100.00;101668.38;4964026;24;20123;-96
2023/11/23 11:54:25;;;;;;;11.65;1.63;;;;;;;11.91;100.00;101681.59;4912767;23;20854;-96
2023/11/23 11:56:53;;;;;;;9.85;1.40;;;;;;;11.96;100.00;101668.00;4863299;29;20109;-96
2023/11/23 11:59:21;;;;;;;9.93;1.65;;;;;;;11.99;100.00;101667.75;4887157;29;20483;-96
2023/11/23 12:01:47;;;;;;;22.02;1.85;;;;;;;12.01;100.00;101664.00;4859221;29;20045;-96
2023/11/23 12:04:18;;;;;;;12.20;1.30;;;;;;;12.02;100.00;101656.88;4886975;29;20041;-96
2023/11/23 12:06:45;;;;;;;10.25;1.88;;;;;;;12.01;100.00;101673.72;4862203;29;20495;-96
2023/11/23 12:09:24;;;;;;;13.63;2.38;;;;;;;12.09;100.00;101666.03;4897575;29;20063;-96
2023/11/23 12:12:04;;;;;;;15.40;1.45;;;;;;;12.12;100.00;101663.16;4886155;29;20044;-96
2023/11/23 12:14:34;;;;;;;13.27;1.70;;;;;;;12.14;100.00;101663.03;4895286;29;20036;-96
2023/11/23 12:17:33;;;;;;;12.52;3.28;;;;;;;12.19;100.00;101658.19;5116628;23;20068;-96
2023/11/23 12:20:42;;;;;;;14.15;2.08;;;;;;;12.20;100.00;101665.16;4862676;29;20072;-96
2023/11/23 12:23:42;;;;;;;23.92;3.83;;;;;;;12.21;100.00;101673.97;5133381;23;20041;-95
2023/11/23 12:26:10;;;;;;;11.52;1.60;;;;;;;12.15;100.00;101665.53;4845080;29;20051;-96
2023/11/23 12:28:41;;;;;;;16.70;2.35;;;;;;;12.17;100.00;101661.94;4874894;29;20033;-96
2023/11/23 12:31:10;;;;;;;11.65;2.65;;;;;;;12.20;100.00;101659.06;4855889;29;20116;-96
2023/11/23 12:33:37;;;;;;;13.07;1.77;;;;;;;12.15;100.00;101648.81;4857002;29;20096;-96
2023/11/23 12:36:04;;;;;;;12.73;2.25;;;;;;;12.12;100.00;101651.72;4882081;29;20044;-95
2023/11/23 12:38:30;;;;;;;17.75;2.13;;;;;;;12.13;100.00;101667.50;4888753;29;20033;-94
2023/11/23 12:40:57;;;;;;;14.75;1.85;;;;;;;12.11;100.00;101642.06;4889031;29;20024;-96
2023/11/23 12:43:22;;;;;;;12.80;1.90;;;;;;;12.10;100.00;101646.56;4881715;29;20040;-95
2023/11/23 12:45:49;;;;;;;16.38;2.17;;;;;;;12.13;100.00;101637.50;4876891;29;20061;-96
2023/11/23 12:51:12;;;;;;;14.18;1.60;;;;;;;12.14;100.00;101637.38;5011567;23;20060;-94
2023/11/23 12:53:38;;;;;;;9.93;1.33;;;;;;;12.14;100.00;101645.31;4906679;29;20072;-96
2023/11/23 13:01:34;;;;;;;16.75;2.40;;;;;;;12.17;100.00;101638.91;4892703;29;20081;-95
2023/11/23 13:04:03;;;;;;;10.57;1.60;;;;;;;12.21;100.00;101647.47;4863768;29;20037;-96
2023/11/23 13:06:29;;;;;;;17.70;2.25;;;;;;;12.18;100.00;101642.41;4873008;29;20135;-96
2023/11/23 13:08:56;;;;;;;8.50;1.60;;;;;;;12.21;100.00;101648.31;4895016;29;20044;-96
2023/11/23 13:11:23;;;;;;;14.07;1.85;;;;;;;12.14;100.00;101647.13;4870386;29;20061;-96
2023/11/23 13:13:53;;;;;;;18.70;2.60;;;;;;;12.17;100.00;101649.53;4907282;29;20032;-95
2023/11/23 13:16:39;;;;;;;18.35;1.92;;;;;;;12.19;100.00;101652.03;4880329;29;20055;-96
2023/11/23 13:19:07;;;;;;;12.20;1.90;;;;;;;12.18;100.00;101645.91;4933031;23;20052;-96
2023/11/23 13:21:36;;;;;;;15.02;2.53;;;;;;;12.23;100.00;101651.66;4863513;29;20060;-96
2023/11/23 13:24:04;;;;;;;17.83;3.00;;;;;;;12.19;100.00;101639.66;4860975;29;20016;-95
2023/11/23 13:26:31;;;;;;;16.80;2.40;;;;;;;12.20;100.00;101643.97;4870472;29;20047;-95
2023/11/23 13:28:57;;;;;;;24.00;2.97;;;;;;;12.21;100.00;101636.88;4956045;23;20049;-96
2023/11/23 13:31:27;;;;;;;14.57;2.00;;;;;;;12.19;100.00;101642.28;4869800;29;20041;-96
2023/11/23 13:39:58;;;;;;;18.58;2.17;;;;;;;12.19;100.00;101629.03;5012664;23;20076;-95
2023/11/23 13:43:10;;;;;;;19.52;2.20;;;;;;;12.21;100.00;101621.81;4855657;29;20073;-95
2023/11/23 13:46:20;;;;;;;16.42;2.70;;;;;;;12.18;100.00;101634.47;4891005;24;20044;-94
2023/11/23 13:49:42;;;;;;;15.45;2.15;;;;;;;12.21;100.00;101627.13;4892747;29;20097;-96
2023/11/23 13:52:27;;;;;;;17.15;2.40;;;;;;;12.24;100.00;101616.25;4879592;29;20075;-95
2023/11/23 13:57:59;;;;;;;18.80;2.78;;;;;;;12.21;100.00;101626.25;4873457;29;20076;-94
2023/11/23 14:00:52;;;;;;;16.88;2.40;;;;;;;12.30;100.00;101629.94;4917588;29;20025;-95
2023/11/23 14:11:55;;;;;;;18.70;2.45;;;;;;;12.29;100.00;101615.88;5010930;23;20426;-96
2023/11/23 14:14:33;;;;;;;20.85;2.83;;;;;;;12.24;100.00;101605.66;4892453;29;20571;-96
2023/11/23 14:17:08;;;;;;;20.58;2.45;;;;;;;12.28;100.00;101601.78;4968359;23;20059;-96
2023/11/23 14:19:44;;;;;;;18.33;2.80;;;;;;;12.22;100.00;101588.19;4919566;29;20052;-96
2023/11/23 14:22:20;;;;;;;16.42;2.42;;;;;;;12.21;100.00;101590.00;4896396;29;20115;-96
2023/11/23 14:26:34;;;;;;;16.40;2.38;;;;;;;12.31;100.00;101586.59;4916232;29;20048;-96
2023/11/23 14:29:09;;;;;;;21.65;2.67;;;;;;;12.23;100.00;101592.53;4900184;29;20443;-96
2023/11/23 14:31:38;;;;;;;12.30;2.05;;;;;;;12.28;100.00;101596.47;4870669;29;20048;-96
2023/11/23 14:34:06;;;;;;;17.10;2.83;;;;;;;12.25;100.00;101595.88;4897348;29;20024;-96
2023/11/23 14:36:40;;;;;;;20.98;3.33;;;;;;;12.25;100.00;101596.72;4885624;29;20044;-96
2023/11/23 14:51:02;;;;;;;17.20;2.85;;;;;;;12.29;100.00;101605.28;5410031;23;20043;-96
2023/11/23 14:59:45;;;;;;;18.25;2.80;;;;;;;12.27;100.00;101609.84;4875366;29;20199;-96
2023/11/23 15:02:11;;;;;;;26.20;3.35;;;;;;;12.23;100.00;101619.84;4880531;29;20052;-95
2023/11/23 15:07:53;;;;;;;20.83;2.85;;;;;;;12.26;100.00;101608.19;5981306;23;20023;-95
2023/11/23 15:19:31;;;;;;;20.27;3.25;;;;;;;12.23;100.00;101603.94;5444257;23;20056;-96
2023/11/23 15:29:48;;;;;;;21.42;4.22;;;;;;;12.26;100.00;101614.31;4918720;23;20056;-95
2023/11/23 15:32:56;;;;;;;23.88;3.03;;;;;;;12.24;100.00;101618.06;4876991;29;21101;-95
2023/11/23 15:39:23;;;;;;;19.42;2.92;;;;;;;12.23;100.00;101613.72;4883270;29;20107;-96
2023/11/23 15:42:26;;;;;;;;;;;;;;;12.19;100.00;101617.59;4880610;29;20151;-96
2023/11/23 15:45:31;;;;;;;19.63;3.70;;;;;;;12.23;100.00;101608.44;4882126;29;20389;-95
2023/11/23 15:48:50;;;;;;;20.30;2.95;;;;;;;12.20;100.00;101628.06;4889602;29;20048;-96
2023/11/23 15:51:44;;;;;;;27.42;2.97;;;;;;;12.22;100.00;101623.50;4879669;29;20041;-95
2023/11/23 15:54:19;;;;;;;21.65;4.65;;;;;;;12.19;100.00;101621.09;4888285;29;20037;-94
2023/11/23 15:57:22;;;;;;;26.80;3.25;;;;;;;12.20;100.00;101624.59;4859815;29;20052;-95
2023/11/23 16:00:29;;;;;;;30.98;4.22;;;;;;;12.25;100.00;101623.22;4856273;29;20547;-96
2023/11/23 16:03:01;;;;;;;27.17;3.13;;;;;;;12.19;100.00;101615.78;4898950;29;20041;-96
2023/11/23 16:06:11;;;;;;;40.95;3.95;;;;;;;12.25;100.00;101609.97;4886166;29;20054;-95
2023/11/23 16:08:56;;;;;;;19.98;2.85;;;;;;;12.23;100.00;101611.91;4901298;29;20575;-96
2023/11/23 16:11:44;;;;;;;21.23;2.95;;;;;;;12.24;100.00;101605.66;4857431;29;20143;-96
2023/11/23 16:14:49;;;;;;;24.80;4.10;;;;;;;12.24;100.00;101596.84;4898426;29;20111;-96
2023/11/23 16:17:44;;;;;;;22.15;3.95;;;;;;;12.25;100.00;101611.78;4871488;29;20053;-95
2023/11/23 16:20:40;;;;;;;26.13;3.67;;;;;;;12.23;100.00;101611.91;4893926;29;20017;-95
2023/11/23 16:24:17;;;;;;;24.77;2.80;;;;;;;12.24;100.00;101612.75;4866590;29;20045;-94
2023/11/23 16:27:41;;;;;;;20.95;2.72;;;;;;;12.24;100.00;101616.25;4859480;29;20783;-95
2023/11/23 16:42:48;;;;;;;19.35;2.92;;;;;;;12.23;100.00;101609.25;5778903;23;20064;-96
2023/11/23 16:46:05;;;;;;;19.98;3.60;;;;;;;12.25;100.00;101612.63;4860287;29;20040;-96
2023/11/23 16:49:25;;;;;;;;;;;;;;;;;;;;;
2023/11/23 16:53:14;;;;;;;20.83;2.80;;;;;;;12.24;100.00;101613.59;4863451;29;20056;-96
2023/11/23 16:57:04;;;;;;;23.23;3.25;;;;;;;12.23;100.00;101621.69;4869651;29;20144;-96
2023/11/23 17:00:42;;;;;;;26.10;3.97;;;;;;;12.25;100.00;101644.44;4874718;29;20062;-96
2023/11/23 17:03:34;;;;;;;;;;;;;;;12.20;100.00;101640.50;4838945;29;20065;-96
2023/11/23 17:06:13;;;;;;;22.45;3.78;;;;;;;12.18;100.00;101648.56;4848763;29;19911;-96
2023/11/23 17:09:01;;;;;;;16.98;3.65;;;;;;;12.20;100.00;101651.91;4847530;29;20041;-96
2023/11/23 17:11:39;;;;;;;20.38;3.63;;;;;;;12.21;100.00;101658.94;4860496;29;20029;-96
2023/11/23 17:14:48;;;;;;;41.20;23.25;;;;;;;12.23;100.00;101661.44;4875266;29;20076;-96
2023/11/23 17:17:58;;;;;;;16.38;3.15;;;;;;;12.23;100.00;101658.81;4878615;29;20049;-96
2023/11/23 17:20:52;;;;;;;13.40;2.53;;;;;;;12.17;100.00;101652.16;4869351;29;20049;-96
2023/11/23 17:24:14;;;;;;;26.65;5.55;;;;;;;12.22;100.00;101655.28;4866232;29;20049;-96
2023/11/23 17:27:25;;;;;;;16.33;2.65;;;;;;;12.19;100.00;101663.50;4866905;29;20048;-96
2023/11/23 17:30:09;;;;;;;14.98;3.03;;;;;;;12.17;100.00;101660.13;4871953;29;20046;-96
2023/11/23 17:33:11;;;;;;;;;;;;;;;;;;;;;
2023/11/23 17:36:16;;;;;;;19.98;4.38;;;;;;;12.26;100.00;101671.81;4857995;29;20037;-96
2023/11/23 18:04:03;;;;;;;19.45;4.68;;;;;;;12.24;100.00;101684.34;1357318;23;20395;-94
2023/11/23 18:13:16;;;;;;;12.73;2.85;;;;;;;12.22;100.00;101688.91;5211613;23;20057;-96
2023/11/23 18:28:05;;;;;;;15.93;2.95;;;;;;;12.14;100.00;101700.13;5562351;23;20519;-96
2023/11/23 18:33:59;;;;;;;8.68;2.53;;;;;;;12.19;100.00;101699.75;4894592;29;20072;-96
2023/11/23 18:36:54;;;;;;;17.10;4.70;;;;;;;12.20;100.00;101709.41;4912584;23;20049;-95
2023/11/23 18:46:47;;;;;;;17.83;4.55;;;;;;;12.20;100.00;101689.03;4912580;29;20068;-96
2023/11/23 18:49:50;;;;;;;11.70;2.47;;;;;;;12.25;100.00;101693.94;5135469;23;20076;-96
2023/11/23 18:53:02;;;;;;;14.30;4.22;;;;;;;12.30;100.00;101683.81;4909062;29;20041;-96
2023/11/23 18:55:52;;;;;;;15.32;6.10;;;;;;;12.26;100.00;101690.34;4886056;29;20061;-96
2023/11/23 19:01:57;;;;;;;14.50;3.03;;;;;;;12.30;100.00;101693.56;5013988;23;20047;-96
2023/11/23 19:04:26;;;;;;;8.85;2.05;;;;;;;12.35;100.00;101694.06;4889272;29;20048;-96
2023/11/23 19:06:57;;;;;;;13.27;3.70;;;;;;;12.30;100.00;101686.47;4884600;29;20043;-96
2023/11/23 19:12:28;;;;;;;13.07;7.22;;;;;;;12.36;100.00;101701.06;5257784;23;20056;-96
2023/11/23 19:15:01;;;;;;;6.82;1.70;;;;;;;12.38;100.00;101696.47;4882325;29;20068;-96
2023/11/23 19:20:31;;;;;;;8.82;1.85;;;;;;;12.34;100.00;101703.81;5280900;23;20056;-96
2023/11/23 19:22:58;;;;;;;11.90;2.97;;;;;;;12.38;100.00;101717.66;4870122;29;20155;-96
2023/11/23 19:25:29;;;;;;;8.77;2.20;;;;;;;12.39;100.00;101706.13;4845551;29;20055;-96
2023/11/23 19:31:34;;;;;;;10.30;2.30;;;;;;;12.43;100.00;101696.94;4934657;23;20049;-96
2023/11/23 19:37:11;;;;;;;11.70;1.75;;;;;;;12.31;100.00;101698.75;5211569;23;20061;-96
2023/11/23 19:39:59;;;;;;;11.10;2.45;;;;;;;12.35;100.00;101705.50;4876973;29;20056;-96
2023/11/23 19:46:04;;;;;;;10.80;2.25;;;;;;;12.36;100.00;101703.72;5402082;23;20054;-96
2023/11/23 19:48:37;;;;;;;11.73;2.85;;;;;;;12.27;100.00;101697.34;4866413;29;20052;-96
2023/11/23 19:51:29;;;;;;;12.30;2.20;;;;;;;12.31;100.00;101709.38;4894784;29;20112;-96
2023/11/23 20:25:17;;;;;;;5.72;1.50;;;;;;;12.13;100.00;101719.66;5742186;23;20041;-96
2023/11/23 21:10:43;;;;;;;1.48;0.40;;;;;;;11.50;100.00;101734.19;5580767;23;20049;-96
2023/11/23 21:48:31;;;;;;;0.80;0.20;;;;;;;11.20;100.00;101702.03;4985820;23;20088;-95
2023/11/23 21:51:47;;;;;;;0.65;0.30;;;;;;;11.24;100.00;101711.44;4860189;29;20032;-96
2023/11/23 22:17:34;;;;;;;1.00;0.40;;;;;;;11.03;100.00;101668.91;4930061;29;20074;-96
2023/11/23 22:20:15;;;;;;;0.75;0.40;;;;;;;11.07;100.00;101678.31;4915057;29;20041;-96
2023/11/23 22:22:41;;;;;;;0.40;0.40;;;;;;;11.00;100.00;101661.22;4909915;29;20486;-96
2023/11/23 22:25:08;;;;;;;0.60;0.30;;;;;;;10.96;100.00;101671.19;4885793;29;20028;-96
2023/11/23 22:27:37;;;;;;;1.73;0.40;;;;;;;10.96;100.00;101667.72;4921036;29;20099;-96
2023/11/23 22:30:11;;;;;;;1.95;0.40;;;;;;;10.94;100.00;101645.81;4910476;29;20032;-96
2023/11/23 22:32:44;;;;;;;0.88;0.70;;;;;;;10.89;100.00;101649.63;4919213;29;20065;-96
2023/11/23 22:35:29;;;;;;;5.15;0.55;;;;;;;10.85;100.00;101644.69;4927597;29;20040;-96
2023/11/23 22:38:05;;;;;;;2.85;0.60;;;;;;;10.79;100.00;101646.88;4910383;29;20012;-96
2023/11/23 22:41:14;;;;;;;;;;;;;;;;;;;;;
2023/11/23 22:48:06;;;;;;;3.90;0.70;;;;;;;10.80;100.00;101642.41;5448359;23;20064;-96
2023/11/23 23:00:48;;;;;;;6.95;0.73;;;;;;;10.52;100.00;101653.28;5183007;23;20147;-96
2023/11/23 23:03:41;;;;;;;6.05;1.05;;;;;;;10.52;100.00;101649.78;4861421;29;20045;-96
2023/11/23 23:06:11;;;;;;;6.53;0.90;;;;;;;10.48;100.00;101651.78;4879898;24;20052;-96
2023/11/23 23:09:15;;;;;;;8.40;1.50;;;;;;;10.50;100.00;101646.38;4873071;29;20060;-96
2023/11/23 23:11:57;;;;;;;4.55;0.95;;;;;;;10.36;100.00;101632.38;4867133;29;20040;-96
2023/11/23 23:14:39;;;;;;;8.68;1.15;;;;;;;10.35;100.00;101641.25;4892398;29;20037;-96
2023/11/23 23:17:22;;;;;;;5.32;0.73;;;;;;;10.39;100.00;101647.16;4873879;29;20546;-96
2023/11/23 23:20:37;;;;;;;5.18;0.80;;;;;;;10.37;100.00;101639.34;4861908;29;20033;-96
2023/11/23 23:23:03;;;;;;;9.25;1.10;;;;;;;10.22;100.00;101640.47;4888558;29;20037;-96
2023/11/23 23:26:13;;;;;;;10.63;1.15;;;;;;;10.29;100.00;101634.63;4903076;29;20142;-96
2023/11/23 23:29:19;;;;;;;7.22;1.00;;;;;;;10.18;100.00;101635.41;4872511;29;20040;-96
2023/11/23 23:31:55;;;;;;;6.70;2.53;;;;;;;10.22;100.00;101632.53;4908482;29;20032;-96
2023/11/23 23:34:23;;;;;;;10.57;1.48;;;;;;;10.15;100.00;101629.50;4886526;29;20080;-96
2023/11/23 23:37:18;;;;;;;10.80;1.42;;;;;;;10.10;100.00;101636.91;4880191;29;20024;-96
2023/11/23 23:39:56;;;;;;;13.00;1.38;;;;;;;10.02;100.00;101635.69;4864850;29;20048;-96
2023/11/23 23:42:25;;;;;;;11.07;1.45;;;;;;;10.05;100.00;101631.97;4873512;29;20053;-96
2023/11/23 23:45:17;;;;;;;11.77;1.50;;;;;;;10.11;100.00;101641.25;4863129;29;20536;-96
2023/11/23 23:48:31;;;;;;;11.30;2.33;;;;;;;10.07;100.00;101622.13;4880647;29;20048;-96
2023/11/23 23:51:09;;;;;;;12.07;2.38;;;;;;;10.06;100.00;101628.38;4855312;29;20049;-96
2023/11/23 23:53:49;;;;;;;15.90;2.00;;;;;;;10.12;100.00;101640.28;4882035;29;20077;-96
2023/11/23 23:56:15;;;;;;;18.45;2.72;;;;;;;10.05;100.00;101634.59;4875401;29;20040;-96
2023/11/23 23:58:48;;;;;;;10.95;2.08;;;;;;;10.15;100.00;101645.34;4865624;29;20063;-96
